← Previous May 28, 2024 4:36 AM

FTUS43 KFGF 271507 AAE
TAFGFK
TAF AMD
KGFK 271507Z 2715/2812 01007KT P6SM BKN019
     FM271600 36009KT P6SM BKN025
     FM272000 33011KT P6SM VCSH BKN045
     FM280200 34009KT P6SM SCT070=